sensor_id;sensor_type;location;lat;lon;timestamp;pressure;altitude;pressure_sealevel;temperature;humidity
41706;BME280;27385;51.096;17.190;2022-08-24T00:00:14;100518.59;;;19.26;100.00
41706;BME280;27385;51.096;17.190;2022-08-24T00:03:05;100518.01;;;19.27;100.00
41706;BME280;27385;51.096;17.190;2022-08-24T00:05:40;100515.77;;;19.29;100.00
41706;BME280;27385;51.096;17.190;2022-08-24T00:08:13;100514.59;;;19.30;100.00
41706;BME280;27385;51.096;17.190;2022-08-24T00:10:46;100515.75;;;19.31;100.00
41706;BME280;27385;51.096;17.190;2022-08-24T00:13:18;100516.27;;;19.32;100.00
41706;BME280;27385;51.096;17.190;2022-08-24T00:15:50;100519.66;;;19.33;100.00
41706;BME280;27385;51.096;17.190;2022-08-24T00:18:22;100518.05;;;19.33;100.00
41706;BME280;27385;51.096;17.190;2022-08-24T00:20:55;100523.06;;;19.32;100.00
41706;BME280;27385;51.096;17.190;2022-08-24T00:23:27;100521.45;;;19.33;100.00
41706;BME280;27385;51.096;17.190;2022-08-24T00:26:01;100524.96;;;19.33;100.00
41706;BME280;27385;51.096;17.190;2022-08-24T00:28:34;100520.69;;;19.34;100.00
41706;BME280;27385;51.096;17.190;2022-08-24T00:31:06;100515.78;;;19.36;100.00
41706;BME280;27385;51.096;17.190;2022-08-24T00:33:38;100512.52;;;19.38;100.00
41706;BME280;27385;51.096;17.190;2022-08-24T00:36:10;100507.15;;;19.39;100.00
41706;BME280;27385;51.096;17.190;2022-08-24T00:38:42;100505.55;;;19.40;100.00
41706;BME280;27385;51.096;17.190;2022-08-24T00:41:14;100500.36;;;19.39;100.00
41706;BME280;27385;51.096;17.190;2022-08-24T00:43:53;100494.28;;;19.39;100.00
41706;BME280;27385;51.096;17.190;2022-08-24T00:46:29;100496.99;;;19.39;100.00
41706;BME280;27385;51.096;17.190;2022-08-24T00:49:04;100495.52;;;19.38;100.00
41706;BME280;27385;51.096;17.190;2022-08-24T00:51:42;100495.09;;;19.36;100.00
41706;BME280;27385;51.096;17.190;2022-08-24T00:54:18;100491.40;;;19.34;100.00
41706;BME280;27385;51.096;17.190;2022-08-24T00:56:53;100489.90;;;19.34;100.00
41706;BME280;27385;51.096;17.190;2022-08-24T00:59:29;100487.14;;;19.33;100.00
41706;BME280;27385;51.096;17.190;2022-08-24T01:02:07;100483.52;;;19.33;100.00
41706;BME280;27385;51.096;17.190;2022-08-24T01:04:44;100486.90;;;19.33;100.00
41706;BME280;27385;51.096;17.190;2022-08-24T01:07:19;100481.35;;;19.32;100.00
41706;BME280;27385;51.096;17.190;2022-08-24T01:09:53;100486.83;;;19.32;100.00
41706;BME280;27385;51.096;17.190;2022-08-24T01:12:27;100487.80;;;19.32;100.00
41706;BME280;27385;51.096;17.190;2022-08-24T01:15:01;100480.19;;;19.32;100.00
41706;BME280;27385;51.096;17.190;2022-08-24T01:17:34;100478.02;;;19.32;100.00
41706;BME280;27385;51.096;17.190;2022-08-24T01:20:24;100474.47;;;19.31;100.00
41706;BME280;27385;51.096;17.190;2022-08-24T01:23:02;100478.02;;;19.32;100.00
41706;BME280;27385;51.096;17.190;2022-08-24T01:25:38;100481.52;;;19.32;100.00
41706;BME280;27385;51.096;17.190;2022-08-24T01:28:15;100483.48;;;19.33;100.00
41706;BME280;27385;51.096;17.190;2022-08-24T01:30:48;100483.11;;;19.33;100.00
41706;BME280;27385;51.096;17.190;2022-08-24T01:33:26;100475.60;;;19.31;100.00
41706;BME280;27385;51.096;17.190;2022-08-24T01:36:02;100473.08;;;19.32;100.00
41706;BME280;27385;51.096;17.190;2022-08-24T01:38:35;100476.89;;;19.32;100.00
41706;BME280;27385;51.096;17.190;2022-08-24T01:41:07;100480.34;;;19.31;100.00
41706;BME280;27385;51.096;17.190;2022-08-24T01:43:39;100480.81;;;19.30;100.00
41706;BME280;27385;51.096;17.190;2022-08-24T01:46:11;100479.88;;;19.30;100.00
41706;BME280;27385;51.096;17.190;2022-08-24T01:48:42;100479.48;;;19.29;100.00
41706;BME280;27385;51.096;17.190;2022-08-24T01:51:14;100480.73;;;19.28;100.00
41706;BME280;27385;51.096;17.190;2022-08-24T01:53:47;100484.14;;;19.27;100.00
41706;BME280;27385;51.096;17.190;2022-08-24T01:56:18;100482.88;;;19.26;100.00
41706;BME280;27385;51.096;17.190;2022-08-24T01:58:50;100488.33;;;19.27;100.00
41706;BME280;27385;51.096;17.190;2022-08-24T02:01:23;100486.47;;;19.26;100.00
41706;BME280;27385;51.096;17.190;2022-08-24T02:03:57;100486.47;;;19.26;100.00
41706;BME280;27385;51.096;17.190;2022-08-24T02:06:31;100491.72;;;19.27;100.00
41706;BME280;27385;51.096;17.190;2022-08-24T02:09:03;100489.04;;;19.27;100.00
41706;BME280;27385;51.096;17.190;2022-08-24T02:11:36;100491.77;;;19.27;100.00
41706;BME280;27385;51.096;17.190;2022-08-24T02:14:09;100495.83;;;19.26;100.00
41706;BME280;27385;51.096;17.190;2022-08-24T02:16:40;100498.77;;;19.26;100.00
41706;BME280;27385;51.096;17.190;2022-08-24T02:19:12;100501.13;;;19.27;100.00
41706;BME280;27385;51.096;17.190;2022-08-24T02:21:44;100511.88;;;19.28;100.00
41706;BME280;27385;51.096;17.190;2022-08-24T02:24:17;100512.42;;;19.29;100.00
41706;BME280;27385;51.096;17.190;2022-08-24T02:26:48;100507.02;;;19.30;100.00
41706;BME280;27385;51.096;17.190;2022-08-24T02:29:20;100506.79;;;19.31;100.00
41706;BME280;27385;51.096;17.190;2022-08-24T02:31:52;100513.17;;;19.32;100.00
41706;BME280;27385;51.096;17.190;2022-08-24T02:34:24;100517.75;;;19.32;100.00
41706;BME280;27385;51.096;17.190;2022-08-24T02:36:56;100519.80;;;19.33;100.00
41706;BME280;27385;51.096;17.190;2022-08-24T02:39:29;100521.87;;;19.35;100.00
41706;BME280;27385;51.096;17.190;2022-08-24T02:42:01;100530.14;;;19.35;100.00
41706;BME280;27385;51.096;17.190;2022-08-24T02:44:33;100530.04;;;19.36;100.00
41706;BME280;27385;51.096;17.190;2022-08-24T02:47:06;100532.51;;;19.35;100.00
41706;BME280;27385;51.096;17.190;2022-08-24T02:49:39;100530.25;;;19.35;100.00
41706;BME280;27385;51.096;17.190;2022-08-24T02:52:10;100528.30;;;19.35;100.00
41706;BME280;27385;51.096;17.190;2022-08-24T02:54:42;100522.96;;;19.34;100.00
41706;BME280;27385;51.096;17.190;2022-08-24T02:57:14;100519.66;;;19.33;100.00
41706;BME280;27385;51.096;17.190;2022-08-24T02:59:46;100518.27;;;19.31;100.00
41706;BME280;27385;51.096;17.190;2022-08-24T03:02:17;100517.68;;;19.29;100.00
41706;BME280;27385;51.096;17.190;2022-08-24T03:04:49;100521.80;;;19.28;100.00
41706;BME280;27385;51.096;17.190;2022-08-24T03:07:20;100523.57;;;19.28;100.00
41706;BME280;27385;51.096;17.190;2022-08-24T03:09:52;100521.87;;;19.27;100.00
41706;BME280;27385;51.096;17.190;2022-08-24T03:12:24;100524.73;;;19.26;100.00
41706;BME280;27385;51.096;17.190;2022-08-24T03:14:55;100532.14;;;19.25;100.00
41706;BME280;27385;51.096;17.190;2022-08-24T03:17:27;100536.36;;;19.25;100.00
41706;BME280;27385;51.096;17.190;2022-08-24T03:20:00;100538.21;;;19.25;100.00
41706;BME280;27385;51.096;17.190;2022-08-24T03:22:32;100546.55;;;19.25;100.00
41706;BME280;27385;51.096;17.190;2022-08-24T03:25:05;100548.77;;;19.24;100.00
41706;BME280;27385;51.096;17.190;2022-08-24T03:27:37;100544.39;;;19.24;100.00
41706;BME280;27385;51.096;17.190;2022-08-24T03:30:13;100549.97;;;19.23;100.00
41706;BME280;27385;51.096;17.190;2022-08-24T03:32:45;100551.36;;;19.23;100.00
41706;BME280;27385;51.096;17.190;2022-08-24T03:35:19;100553.83;;;19.24;100.00
41706;BME280;27385;51.096;17.190;2022-08-24T03:37:52;100555.81;;;19.25;100.00
41706;BME280;27385;51.096;17.190;2022-08-24T03:40:24;100557.65;;;19.26;100.00
41706;BME280;27385;51.096;17.190;2022-08-24T03:42:57;100563.59;;;19.29;100.00
41706;BME280;27385;51.096;17.190;2022-08-24T03:45:30;100556.56;;;19.30;100.00
41706;BME280;27385;51.096;17.190;2022-08-24T03:48:02;100565.52;;;19.31;100.00
41706;BME280;27385;51.096;17.190;2022-08-24T03:50:33;100569.73;;;19.32;100.00
41706;BME280;27385;51.096;17.190;2022-08-24T03:53:05;100570.66;;;19.34;100.00
41706;BME280;27385;51.096;17.190;2022-08-24T03:55:37;100567.59;;;19.38;100.00
41706;BME280;27385;51.096;17.190;2022-08-24T03:58:09;100565.47;;;19.39;100.00
41706;BME280;27385;51.096;17.190;2022-08-24T04:00:40;100571.52;;;19.41;100.00
41706;BME280;27385;51.096;17.190;2022-08-24T04:03:13;100567.48;;;19.43;100.00
41706;BME280;27385;51.096;17.190;2022-08-24T04:05:45;100572.77;;;19.44;100.00
41706;BME280;27385;51.096;17.190;2022-08-24T04:08:17;100572.29;;;19.45;100.00
41706;BME280;27385;51.096;17.190;2022-08-24T04:10:50;100574.36;;;19.45;100.00
41706;BME280;27385;51.096;17.190;2022-08-24T04:13:22;100575.63;;;19.46;100.00
41706;BME280;27385;51.096;17.190;2022-08-24T04:15:54;100577.43;;;19.45;100.00
41706;BME280;27385;51.096;17.190;2022-08-24T04:18:26;100578.52;;;19.45;100.00
41706;BME280;27385;51.096;17.190;2022-08-24T04:20:57;100574.10;;;19.44;100.00
41706;BME280;27385;51.096;17.190;2022-08-24T04:23:29;100572.83;;;19.44;100.00
41706;BME280;27385;51.096;17.190;2022-08-24T04:26:04;100578.44;;;19.43;100.00
41706;BME280;27385;51.096;17.190;2022-08-24T04:28:36;100580.80;;;19.44;100.00
41706;BME280;27385;51.096;17.190;2022-08-24T04:31:08;100578.15;;;19.46;100.00
41706;BME280;27385;51.096;17.190;2022-08-24T04:33:40;100579.20;;;19.48;100.00
41706;BME280;27385;51.096;17.190;2022-08-24T04:36:12;100584.58;;;19.47;100.00
41706;BME280;27385;51.096;17.190;2022-08-24T04:38:44;100582.37;;;19.46;100.00
41706;BME280;27385;51.096;17.190;2022-08-24T04:41:17;100580.05;;;19.47;100.00
41706;BME280;27385;51.096;17.190;2022-08-24T04:43:49;100580.13;;;19.48;100.00
41706;BME280;27385;51.096;17.190;2022-08-24T04:46:21;100584.34;;;19.49;100.00
41706;BME280;27385;51.096;17.190;2022-08-24T04:48:52;100586.48;;;19.50;100.00
41706;BME280;27385;51.096;17.190;2022-08-24T04:51:24;100587.67;;;19.51;100.00
41706;BME280;27385;51.096;17.190;2022-08-24T04:53:56;100587.31;;;19.51;100.00
41706;BME280;27385;51.096;17.190;2022-08-24T04:56:29;100587.35;;;19.52;100.00
41706;BME280;27385;51.096;17.190;2022-08-24T04:59:01;100582.20;;;19.52;100.00
41706;BME280;27385;51.096;17.190;2022-08-24T05:01:33;100578.08;;;19.52;100.00
41706;BME280;27385;51.096;17.190;2022-08-24T05:04:05;100581.09;;;19.51;100.00
41706;BME280;27385;51.096;17.190;2022-08-24T05:06:39;100584.89;;;19.51;100.00
41706;BME280;27385;51.096;17.190;2022-08-24T05:09:10;100587.39;;;19.52;100.00
41706;BME280;27385;51.096;17.190;2022-08-24T05:11:42;100592.96;;;19.52;100.00
41706;BME280;27385;51.096;17.190;2022-08-24T05:14:14;100592.22;;;19.53;100.00
41706;BME280;27385;51.096;17.190;2022-08-24T05:16:46;100585.98;;;19.54;100.00
41706;BME280;27385;51.096;17.190;2022-08-24T05:19:17;100581.27;;;19.55;100.00
41706;BME280;27385;51.096;17.190;2022-08-24T05:21:50;100578.54;;;19.56;100.00
41706;BME280;27385;51.096;17.190;2022-08-24T05:24:22;100579.50;;;19.57;100.00
41706;BME280;27385;51.096;17.190;2022-08-24T05:26:54;100579.70;;;19.59;100.00
41706;BME280;27385;51.096;17.190;2022-08-24T05:29:27;100581.84;;;19.60;100.00
41706;BME280;27385;51.096;17.190;2022-08-24T05:32:03;100577.35;;;19.61;100.00
41706;BME280;27385;51.096;17.190;2022-08-24T05:34:35;100580.61;;;19.59;100.00
41706;BME280;27385;51.096;17.190;2022-08-24T05:37:06;100582.17;;;19.58;100.00
41706;BME280;27385;51.096;17.190;2022-08-24T05:39:39;100580.11;;;19.59;100.00
41706;BME280;27385;51.096;17.190;2022-08-24T05:42:11;100580.75;;;19.57;100.00
41706;BME280;27385;51.096;17.190;2022-08-24T05:44:42;100581.79;;;19.56;100.00
41706;BME280;27385;51.096;17.190;2022-08-24T05:47:14;100579.09;;;19.57;100.00
41706;BME280;27385;51.096;17.190;2022-08-24T05:49:46;100582.42;;;19.59;100.00
41706;BME280;27385;51.096;17.190;2022-08-24T05:52:21;100583.23;;;19.60;100.00
41706;BME280;27385;51.096;17.190;2022-08-24T05:54:55;100581.98;;;19.61;100.00
41706;BME280;27385;51.096;17.190;2022-08-24T05:57:32;100584.41;;;19.64;100.00
41706;BME280;27385;51.096;17.190;2022-08-24T06:00:06;100581.30;;;19.65;100.00
41706;BME280;27385;51.096;17.190;2022-08-24T06:02:39;100583.71;;;19.67;100.00
41706;BME280;27385;51.096;17.190;2022-08-24T06:05:12;100582.81;;;19.69;100.00
41706;BME280;27385;51.096;17.190;2022-08-24T06:07:44;100582.13;;;19.70;100.00
41706;BME280;27385;51.096;17.190;2022-08-24T06:10:16;100579.02;;;19.71;100.00
41706;BME280;27385;51.096;17.190;2022-08-24T06:12:48;100589.11;;;19.72;100.00
41706;BME280;27385;51.096;17.190;2022-08-24T06:15:20;100585.90;;;19.73;100.00
41706;BME280;27385;51.096;17.190;2022-08-24T06:17:51;100587.57;;;19.75;100.00
41706;BME280;27385;51.096;17.190;2022-08-24T06:20:23;100591.00;;;19.77;100.00
41706;BME280;27385;51.096;17.190;2022-08-24T06:22:56;100593.16;;;19.78;100.00
41706;BME280;27385;51.096;17.190;2022-08-24T06:25:28;100593.30;;;19.82;100.00
41706;BME280;27385;51.096;17.190;2022-08-24T06:28:17;100593.75;;;19.86;100.00
41706;BME280;27385;51.096;17.190;2022-08-24T06:30:49;100594.11;;;19.91;100.00
41706;BME280;27385;51.096;17.190;2022-08-24T06:33:21;100598.59;;;19.95;100.00
41706;BME280;27385;51.096;17.190;2022-08-24T06:35:55;100597.27;;;19.98;100.00
41706;BME280;27385;51.096;17.190;2022-08-24T06:38:27;100600.77;;;20.01;100.00
41706;BME280;27385;51.096;17.190;2022-08-24T06:41:01;100602.04;;;20.06;100.00
41706;BME280;27385;51.096;17.190;2022-08-24T06:43:33;100601.31;;;20.10;100.00
41706;BME280;27385;51.096;17.190;2022-08-24T06:46:06;100603.42;;;20.15;100.00
41706;BME280;27385;51.096;17.190;2022-08-24T06:48:37;100601.45;;;20.20;100.00
41706;BME280;27385;51.096;17.190;2022-08-24T06:51:15;100595.27;;;20.24;100.00
41706;BME280;27385;51.096;17.190;2022-08-24T06:53:47;100593.71;;;20.28;100.00
41706;BME280;27385;51.096;17.190;2022-08-24T06:56:19;100598.83;;;20.31;100.00
41706;BME280;27385;51.096;17.190;2022-08-24T06:58:51;100601.63;;;20.33;100.00
41706;BME280;27385;51.096;17.190;2022-08-24T07:01:24;100601.35;;;20.35;100.00
41706;BME280;27385;51.096;17.190;2022-08-24T07:03:57;100606.54;;;20.36;100.00
41706;BME280;27385;51.096;17.190;2022-08-24T07:06:29;100601.72;;;20.37;100.00
41706;BME280;27385;51.096;17.190;2022-08-24T07:09:01;100598.08;;;20.39;100.00
41706;BME280;27385;51.096;17.190;2022-08-24T07:11:32;100599.46;;;20.40;100.00
41706;BME280;27385;51.096;17.190;2022-08-24T07:14:07;100595.98;;;20.41;100.00
41706;BME280;27385;51.096;17.190;2022-08-24T07:16:42;100601.94;;;20.39;100.00
41706;BME280;27385;51.096;17.190;2022-08-24T07:19:16;100595.38;;;20.38;100.00
41706;BME280;27385;51.096;17.190;2022-08-24T07:21:52;100594.13;;;20.38;100.00
41706;BME280;27385;51.096;17.190;2022-08-24T07:24:33;100591.11;;;20.38;100.00
41706;BME280;27385;51.096;17.190;2022-08-24T07:27:05;100595.13;;;20.37;100.00
41706;BME280;27385;51.096;17.190;2022-08-24T07:29:38;100595.30;;;20.36;100.00
41706;BME280;27385;51.096;17.190;2022-08-24T07:32:10;100596.37;;;20.37;100.00
41706;BME280;27385;51.096;17.190;2022-08-24T07:34:42;100598.87;;;20.39;100.00
41706;BME280;27385;51.096;17.190;2022-08-24T07:37:21;100602.98;;;20.40;100.00
41706;BME280;27385;51.096;17.190;2022-08-24T07:40:00;100608.81;;;20.42;100.00
41706;BME280;27385;51.096;17.190;2022-08-24T07:42:39;100614.27;;;20.47;100.00
41706;BME280;27385;51.096;17.190;2022-08-24T07:45:18;100614.52;;;20.50;100.00
41706;BME280;27385;51.096;17.190;2022-08-24T07:47:52;100618.64;;;20.54;100.00
41706;BME280;27385;51.096;17.190;2022-08-24T07:50:24;100618.71;;;20.58;100.00
41706;BME280;27385;51.096;17.190;2022-08-24T07:52:56;100624.39;;;20.62;100.00
41706;BME280;27385;51.096;17.190;2022-08-24T07:55:28;100628.55;;;20.65;100.00
41706;BME280;27385;51.096;17.190;2022-08-24T07:58:01;100632.59;;;20.68;100.00
41706;BME280;27385;51.096;17.190;2022-08-24T08:00:32;100632.91;;;20.71;100.00
41706;BME280;27385;51.096;17.190;2022-08-24T08:03:05;100632.33;;;20.74;100.00
41706;BME280;27385;51.096;17.190;2022-08-24T08:05:40;100635.27;;;20.75;100.00
41706;BME280;27385;51.096;17.190;2022-08-24T08:08:12;100637.73;;;20.79;100.00
41706;BME280;27385;51.096;17.190;2022-08-24T08:10:44;100638.73;;;20.81;100.00
41706;BME280;27385;51.096;17.190;2022-08-24T08:13:16;100638.27;;;20.83;100.00
41706;BME280;27385;51.096;17.190;2022-08-24T08:15:48;100641.71;;;20.88;100.00
41706;BME280;27385;51.096;17.190;2022-08-24T08:18:20;100641.93;;;20.90;100.00
41706;BME280;27385;51.096;17.190;2022-08-24T08:20:52;100641.43;;;20.92;100.00
41706;BME280;27385;51.096;17.190;2022-08-24T08:23:24;100641.42;;;20.93;100.00
41706;BME280;27385;51.096;17.190;2022-08-24T08:26:19;100643.46;;;20.91;100.00
41706;BME280;27385;51.096;17.190;2022-08-24T08:28:51;100648.38;;;20.93;100.00
41706;BME280;27385;51.096;17.190;2022-08-24T08:31:23;100648.77;;;20.97;100.00
41706;BME280;27385;51.096;17.190;2022-08-24T08:33:55;100652.73;;;21.03;100.00
41706;BME280;27385;51.096;17.190;2022-08-24T08:36:27;100653.75;;;21.07;100.00
41706;BME280;27385;51.096;17.190;2022-08-24T08:38:59;100659.45;;;21.11;100.00
41706;BME280;27385;51.096;17.190;2022-08-24T08:42:02;100661.73;;;21.12;100.00
41706;BME280;27385;51.096;17.190;2022-08-24T08:44:54;100668.13;;;21.14;100.00
41706;BME280;27385;51.096;17.190;2022-08-24T08:47:51;100672.02;;;21.16;100.00
41706;BME280;27385;51.096;17.190;2022-08-24T08:53:53;100680.14;;;21.20;100.00
41706;BME280;27385;51.096;17.190;2022-08-24T08:56:39;100680.71;;;21.21;100.00
41706;BME280;27385;51.096;17.190;2022-08-24T08:59:13;100688.63;;;21.20;100.00
41706;BME280;27385;51.096;17.190;2022-08-24T09:01:56;100687.59;;;21.17;100.00
41706;BME280;27385;51.096;17.190;2022-08-24T09:04:52;100683.59;;;21.16;100.00
41706;BME280;27385;51.096;17.190;2022-08-24T09:07:38;100683.91;;;21.15;100.00
41706;BME280;27385;51.096;17.190;2022-08-24T09:10:40;100685.21;;;21.14;100.00
41706;BME280;27385;51.096;17.190;2022-08-24T09:13:29;100688.25;;;21.18;100.00
41706;BME280;27385;51.096;17.190;2022-08-24T09:16:13;100691.29;;;21.21;100.00
41706;BME280;27385;51.096;17.190;2022-08-24T09:19:05;100689.95;;;21.24;100.00
41706;BME280;27385;51.096;17.190;2022-08-24T09:21:54;100693.48;;;21.25;100.00
41706;BME280;27385;51.096;17.190;2022-08-24T09:27:44;100693.02;;;21.34;100.00
41706;BME280;27385;51.096;17.190;2022-08-24T09:30:19;100687.39;;;21.34;100.00
41706;BME280;27385;51.096;17.190;2022-08-24T09:33:07;100689.70;;;21.32;100.00
41706;BME280;27385;51.096;17.190;2022-08-24T09:36:07;100695.98;;;21.33;100.00
41706;BME280;27385;51.096;17.190;2022-08-24T09:39:04;100695.40;;;21.34;100.00
41706;BME280;27385;51.096;17.190;2022-08-24T09:42:14;100703.42;;;21.36;100.00
41706;BME280;27385;51.096;17.190;2022-08-24T09:45:18;100703.36;;;21.36;100.00
41706;BME280;27385;51.096;17.190;2022-08-24T09:48:26;100705.41;;;21.34;100.00
41706;BME280;27385;51.096;17.190;2022-08-24T09:51:24;100710.13;;;21.36;100.00
41706;BME280;27385;51.096;17.190;2022-08-24T09:57:39;100712.98;;;21.41;100.00
41706;BME280;27385;51.096;17.190;2022-08-24T10:00:17;100710.14;;;21.41;100.00
41706;BME280;27385;51.096;17.190;2022-08-24T10:03:12;100702.14;;;21.38;100.00
41706;BME280;27385;51.096;17.190;2022-08-24T10:08:58;100707.88;;;21.38;100.00
41706;BME280;27385;51.096;17.190;2022-08-24T10:11:44;100707.40;;;21.42;100.00
41706;BME280;27385;51.096;17.190;2022-08-24T10:14:29;100706.71;;;21.48;100.00
41706;BME280;27385;51.096;17.190;2022-08-24T10:17:16;100706.60;;;21.54;100.00
41706;BME280;27385;51.096;17.190;2022-08-24T10:20:03;100702.13;;;21.59;100.00
41706;BME280;27385;51.096;17.190;2022-08-24T10:23:03;100701.30;;;21.61;100.00
41706;BME280;27385;51.096;17.190;2022-08-24T10:25:41;100699.48;;;21.64;100.00
41706;BME280;27385;51.096;17.190;2022-08-24T10:28:38;100695.91;;;21.68;100.00
41706;BME280;27385;51.096;17.190;2022-08-24T10:31:19;100699.04;;;21.75;100.00
41706;BME280;27385;51.096;17.190;2022-08-24T10:34:14;100699.95;;;21.82;100.00
41706;BME280;27385;51.096;17.190;2022-08-24T10:37:27;100699.72;;;21.89;100.00
41706;BME280;27385;51.096;17.190;2022-08-24T10:40:15;100699.21;;;21.96;100.00
41706;BME280;27385;51.096;17.190;2022-08-24T10:43:07;100693.71;;;21.99;100.00
41706;BME280;27385;51.096;17.190;2022-08-24T10:49:35;100690.20;;;21.99;99.89
41706;BME280;27385;51.096;17.190;2022-08-24T10:55:23;100685.45;;;22.12;100.00
41706;BME280;27385;51.096;17.190;2022-08-24T10:58:09;100682.67;;;22.25;99.95
41706;BME280;27385;51.096;17.190;2022-08-24T11:00:42;100684.55;;;22.34;99.10
41706;BME280;27385;51.096;17.190;2022-08-24T11:03:17;100688.42;;;22.32;98.50
41706;BME280;27385;51.096;17.190;2022-08-24T11:05:52;100693.96;;;22.31;98.66
41706;BME280;27385;51.096;17.190;2022-08-24T11:08:27;100687.50;;;22.31;97.75
41706;BME280;27385;51.096;17.190;2022-08-24T11:11:08;100682.39;;;22.35;99.09
41706;BME280;27385;51.096;17.190;2022-08-24T11:13:52;100683.42;;;22.45;99.40
41706;BME280;27385;51.096;17.190;2022-08-24T11:16:31;100686.79;;;22.54;98.79
41706;BME280;27385;51.096;17.190;2022-08-24T11:19:09;100689.89;;;22.56;98.78
41706;BME280;27385;51.096;17.190;2022-08-24T11:21:51;100692.08;;;22.59;98.12
41706;BME280;27385;51.096;17.190;2022-08-24T11:24:40;100699.64;;;22.58;97.57
41706;BME280;27385;51.096;17.190;2022-08-24T11:27:25;100708.71;;;22.57;97.26
41706;BME280;27385;51.096;17.190;2022-08-24T11:30:03;100704.83;;;22.60;97.71
41706;BME280;27385;51.096;17.190;2022-08-24T11:32:44;100704.13;;;22.71;98.00
41706;BME280;27385;51.096;17.190;2022-08-24T11:35:22;100708.13;;;22.81;97.46
41706;BME280;27385;51.096;17.190;2022-08-24T11:37:55;100707.79;;;22.88;96.94
41706;BME280;27385;51.096;17.190;2022-08-24T11:40:32;100705.77;;;22.91;96.29
41706;BME280;27385;51.096;17.190;2022-08-24T11:43:30;100708.86;;;22.93;95.67
41706;BME280;27385;51.096;17.190;2022-08-24T11:46:21;100711.23;;;22.95;95.11
41706;BME280;27385;51.096;17.190;2022-08-24T11:49:05;100706.05;;;22.96;95.21
41706;BME280;27385;51.096;17.190;2022-08-24T11:51:48;100713.84;;;23.01;94.99
41706;BME280;27385;51.096;17.190;2022-08-24T11:54:30;100712.14;;;23.04;94.54
41706;BME280;27385;51.096;17.190;2022-08-24T11:57:10;100710.04;;;23.04;93.66
41706;BME280;27385;51.096;17.190;2022-08-24T11:59:52;100708.95;;;23.05;94.21
41706;BME280;27385;51.096;17.190;2022-08-24T12:02:30;100713.80;;;23.03;93.66
41706;BME280;27385;51.096;17.190;2022-08-24T12:05:11;100715.25;;;22.98;93.62
41706;BME280;27385;51.096;17.190;2022-08-24T12:07:52;100718.60;;;22.95;93.85
41706;BME280;27385;51.096;17.190;2022-08-24T12:10:36;100715.36;;;22.96;93.69
41706;BME280;27385;51.096;17.190;2022-08-24T12:13:15;100717.27;;;22.97;93.04
41706;BME280;27385;51.096;17.190;2022-08-24T12:15:55;100720.50;;;22.95;92.72
41706;BME280;27385;51.096;17.190;2022-08-24T12:18:32;100722.16;;;22.95;93.05
41706;BME280;27385;51.096;17.190;2022-08-24T12:21:09;100721.09;;;22.97;93.33
41706;BME280;27385;51.096;17.190;2022-08-24T12:23:45;100725.80;;;22.97;92.83
41706;BME280;27385;51.096;17.190;2022-08-24T12:26:23;100730.10;;;22.97;93.47
41706;BME280;27385;51.096;17.190;2022-08-24T12:29:04;100726.53;;;23.01;93.30
41706;BME280;27385;51.096;17.190;2022-08-24T12:31:41;100728.59;;;23.06;93.17
41706;BME280;27385;51.096;17.190;2022-08-24T12:34:19;100726.37;;;23.08;92.56
41706;BME280;27385;51.096;17.190;2022-08-24T12:37:01;100727.27;;;23.06;91.67
41706;BME280;27385;51.096;17.190;2022-08-24T12:39:38;100723.71;;;23.03;92.17
41706;BME280;27385;51.096;17.190;2022-08-24T12:42:18;100718.06;;;23.01;92.09
41706;BME280;27385;51.096;17.190;2022-08-24T12:44:55;100718.83;;;23.02;92.22
41706;BME280;27385;51.096;17.190;2022-08-24T12:47:40;100719.53;;;23.08;92.28
41706;BME280;27385;51.096;17.190;2022-08-24T12:50:21;100722.21;;;23.10;92.09
41706;BME280;27385;51.096;17.190;2022-08-24T12:53:28;100721.77;;;23.17;92.19
41706;BME280;27385;51.096;17.190;2022-08-24T12:59:16;100719.21;;;23.34;90.95
41706;BME280;27385;51.096;17.190;2022-08-24T13:02:00;100714.37;;;23.35;90.69
41706;BME280;27385;51.096;17.190;2022-08-24T13:04:36;100707.73;;;23.33;90.39
41706;BME280;27385;51.096;17.190;2022-08-24T13:07:25;100702.11;;;23.32;90.76
41706;BME280;27385;51.096;17.190;2022-08-24T13:10:12;100705.78;;;23.35;89.75
41706;BME280;27385;51.096;17.190;2022-08-24T13:13:08;100702.40;;;23.34;89.77
41706;BME280;27385;51.096;17.190;2022-08-24T13:16:04;100703.66;;;23.39;90.31
41706;BME280;27385;51.096;17.190;2022-08-24T13:21:56;100708.01;;;23.52;90.10
41706;BME280;27385;51.096;17.190;2022-08-24T13:24:43;100712.05;;;23.58;89.87
41706;BME280;27385;51.096;17.190;2022-08-24T13:27:59;100712.21;;;23.64;89.15
41706;BME280;27385;51.096;17.190;2022-08-24T13:30:48;100717.81;;;23.71;89.27
41706;BME280;27385;51.096;17.190;2022-08-24T13:33:33;100713.52;;;23.77;89.41
41706;BME280;27385;51.096;17.190;2022-08-24T13:39:32;100714.90;;;23.86;87.54
41706;BME280;27385;51.096;17.190;2022-08-24T13:42:22;100706.94;;;23.89;87.03
41706;BME280;27385;51.096;17.190;2022-08-24T13:45:13;100707.41;;;23.91;87.55
41706;BME280;27385;51.096;17.190;2022-08-24T13:47:57;100705.45;;;23.94;87.20
41706;BME280;27385;51.096;17.190;2022-08-24T13:50:35;100702.24;;;23.99;87.06
41706;BME280;27385;51.096;17.190;2022-08-24T13:56:28;100699.66;;;24.03;86.94